Strona główna
METAR-TAF:

METAR-TAF

Lotnisko :

Port lotniczy Belgrad

Belgrad, Serbia

Szerokość geograficzna: 44-49N, Długość geograficzna: 020-17E, wysokość: 96 m

Aktualna obserwacja pogody

Raport powstał 13 minut temu, godzina 07:00 UTC
Wiatr 7 kt od zachodnio-południowy zachód
Temperatura 23°C
Wilgotność 78%
Ciśnienie 1022 hPa
Widzialność 10 km lub więcej
Brak chmur poniżej 1500 m i brak chmur cumulonimbus

METAR: LYBE 200700Z 25007KT CAVOK 23/19 Q1022 NOSIG

czas: 09:13 (07:13 UTC)

Prognoza

Raport powstał 2 godziny i 13 minut temu, godzina 05:00 UTC
Prognoza ważna od 20 godzina 06 UTC do 21 godzina 06 UTC
Wiatr 5 kt od południowy zachód
Widzialność 10 km lub więcej
Brak chmur poniżej 1500 m i brak chmur cumulonimbus

TAF: LYBE 200500Z 2006/2106 22005KT CAVOK TX31/2014Z TN19/2103Z

Obserwacja i prognoza pogody dla ponad 4000 lotnisk (raport METAR i TAF).

Dostępne stacje oznaczono żółtymi i czerwonymi punktami na mapie.

Najedź kursorem aby zobaczyć nazwę stacji.

Kliknij aby zobaczyć obserwacje i prognozy pogody.

Aby zmienić mapę: kliknij na zielony przycisk z czarnym krzyżykiem, aby powiększyć; na zielony przycisk z myślnikiem, aby pomniejszyć; na zielone strzałki, aby przejść do map sąsiednich.


METAR-TAF: